Time;durP1;ratioP1;P1;durP2;ratioP2;P2;SDS_P1;SDS_P2;PMS_P1;PMS_P2;Temp;Humidity;BMP_temperature;BMP_pressure;BME280_temperature;BME280_humidity;BME280_pressure;Samples;Min_cycle;Max_cycle;Signal;HPM_P1;HPM_P2
2021/07/26 00:01:52;;;;;;;6.73;4.67;;;21.90;44.40;;;;;;10436996;28;20616;-72
2021/07/26 00:06:57;;;;;;;5.90;4.70;;;21.90;44.40;;;;;;10439480;28;20260;-71
2021/07/26 00:12:00;;;;;;;5.10;4.60;;;21.90;44.90;;;;;;10434566;28;20480;-72
2021/07/26 00:17:04;;;;;;;5.40;4.97;;;21.90;44.60;;;;;;10480561;28;20224;-72
2021/07/26 00:22:08;;;;;;;7.10;4.33;;;21.90;44.80;;;;;;10479571;28;20230;-71
2021/07/26 00:27:12;;;;;;;5.30;4.80;;;21.80;45.90;;;;;;10482589;28;20232;-72
2021/07/26 00:32:15;;;;;;;5.63;4.73;;;21.70;44.70;;;;;;10482194;28;20224;-72
2021/07/26 00:37:19;;;;;;;6.33;4.70;;;21.70;44.80;;;;;;10486564;28;20599;-72
2021/07/26 00:42:22;;;;;;;5.33;4.83;;;21.60;45.40;;;;;;10478596;28;20224;-72
2021/07/26 00:47:26;;;;;;;5.53;4.80;;;21.60;45.20;;;;;;10476109;28;20301;-71
2021/07/26 00:52:31;;;;;;;6.43;5.00;;;21.60;45.20;;;;;;10479547;28;20294;-72
2021/07/26 00:57:34;;;;;;;7.53;5.33;;;21.60;45.50;;;;;;10482761;28;20235;-71
2021/07/26 01:02:37;;;;;;;5.23;4.77;;;21.60;45.10;;;;;;10472342;28;20217;-72
2021/07/26 01:07:42;;;;;;;8.53;5.07;;;21.50;45.20;;;;;;10473731;28;20224;-73
2021/07/26 01:12:45;;;;;;;5.10;4.60;;;21.40;45.60;;;;;;10469755;28;20225;-73
2021/07/26 01:18:18;;;;;;;7.77;4.47;;;21.40;45.40;;;;;;10471630;28;20247;-73
2021/07/26 01:23:24;;;;;;;7.07;4.60;;;21.30;45.90;;;;;;10392849;28;20660;-73
2021/07/26 01:28:30;;;;;;;6.30;4.90;;;21.30;45.80;;;;;;10430125;28;20221;-73
2021/07/26 01:33:34;;;;;;;5.90;5.30;;;21.40;45.90;;;;;;10426035;28;20222;-73
2021/07/26 01:38:39;;;;;;;6.80;4.80;;;21.40;45.60;;;;;;10429961;28;20218;-73
2021/07/26 01:44:01;;;;;;;6.93;5.20;;;21.30;45.90;;;;;;10426503;28;20239;-73
2021/07/26 01:49:15;;;;;;;7.37;5.13;;;21.30;45.70;;;;;;10424701;28;20218;-73
2021/07/26 01:54:20;;;;;;;7.53;5.10;;;21.20;46.20;;;;;;10431700;28;20233;-73
2021/07/26 01:59:24;;;;;;;5.83;5.00;;;21.20;46.00;;;;;;10425631;28;20225;-73
2021/07/26 02:04:27;;;;;;;4.47;3.97;;;21.10;45.50;;;;;;10425535;28;20261;-73
2021/07/26 02:09:32;;;;;;;6.13;5.20;;;21.00;45.50;;;;;;10424652;28;20228;-73
2021/07/26 02:14:35;;;;;;;6.90;4.40;;;21.00;46.20;;;;;;10425525;28;20240;-74
2021/07/26 02:19:38;;;;;;;6.70;4.77;;;21.00;46.00;;;;;;10427453;28;20739;-73
2021/07/26 02:24:42;;;;;;;5.27;4.77;;;21.00;46.00;;;;;;10426774;28;20235;-73
2021/07/26 02:29:45;;;;;;;5.43;4.93;;;21.10;46.50;;;;;;10425182;28;20237;-73
2021/07/26 02:34:49;;;;;;;9.27;5.20;;;21.10;45.90;;;;;;10424036;28;20733;-73
2021/07/26 02:39:53;;;;;;;8.33;5.33;;;21.10;46.00;;;;;;10419648;28;20233;-73
2021/07/26 02:44:56;;;;;;;7.37;5.03;;;21.10;46.30;;;;;;10428542;28;20231;-73
2021/07/26 02:50:00;;;;;;;5.77;4.80;;;21.10;45.90;;;;;;10425909;28;20229;-73
2021/07/26 02:55:05;;;;;;;6.20;5.20;;;21.10;45.90;;;;;;10481761;28;20247;-74
2021/07/26 03:00:09;;;;;;;5.60;4.60;;;21.10;46.50;;;;;;10473761;28;20712;-73
2021/07/26 03:05:13;;;;;;;7.60;4.97;;;21.10;46.20;;;;;;10473164;28;20695;-73
2021/07/26 03:10:18;;;;;;;7.77;4.60;;;21.10;46.20;;;;;;10473158;28;20235;-73
2021/07/26 03:15:21;;;;;;;7.80;4.70;;;21.10;46.30;;;;;;10473913;28;20225;-73
2021/07/26 03:20:25;;;;;;;5.60;4.87;;;21.10;46.00;;;;;;10480231;28;20236;-73
2021/07/26 03:25:30;;;;;;;6.97;4.70;;;21.20;46.00;;;;;;10484218;28;20230;-73
2021/07/26 03:30:34;;;;;;;9.97;5.23;;;21.20;46.30;;;;;;10472924;28;20236;-73
2021/07/26 03:35:37;;;;;;;9.17;5.40;;;21.20;45.80;;;;;;10472846;28;20225;-73
2021/07/26 03:40:41;;;;;;;6.53;5.20;;;21.20;45.80;;;;;;10472819;28;20228;-74
2021/07/26 03:45:45;;;;;;;6.33;5.10;;;21.10;46.00;;;;;;10481796;28;20290;-73
2021/07/26 03:50:48;;;;;;;8.30;5.27;;;20.90;45.80;;;;;;10470098;28;20228;-73
2021/07/26 03:55:52;;;;;;;7.17;5.17;;;20.80;46.10;;;;;;10477075;28;20233;-73
2021/07/26 04:00:56;;;;;;;7.13;4.90;;;20.80;46.60;;;;;;10473663;28;20244;-73
2021/07/26 04:06:01;;;;;;;6.07;4.87;;;20.80;46.40;;;;;;10480275;28;20228;-73
2021/07/26 04:11:09;;;;;;;7.60;5.00;;;20.70;46.40;;;;;;10472125;28;20241;-73
2021/07/26 04:16:12;;;;;;;6.43;5.43;;;20.70;46.90;;;;;;10468016;28;20717;-74
2021/07/26 04:21:15;;;;;;;8.07;5.30;;;20.70;46.50;;;;;;10474356;28;20239;-73
2021/07/26 04:26:19;;;;;;;8.80;5.27;;;20.70;46.70;;;;;;10467816;28;20235;-73
2021/07/26 04:31:23;;;;;;;7.53;4.77;;;20.60;47.40;;;;;;10474510;28;20235;-73
2021/07/26 04:36:26;;;;;;;7.20;5.27;;;20.60;47.30;;;;;;10471084;28;20232;-73
2021/07/26 04:41:32;;;;;;;10.67;6.70;;;20.50;47.40;;;;;;10464045;28;20236;-74
2021/07/26 04:46:35;;;;;;;9.87;7.90;;;20.60;48.10;;;;;;10466716;28;20213;-73
2021/07/26 04:51:38;;;;;;;9.87;7.30;;;20.60;47.70;;;;;;10467135;28;20713;-74
2021/07/26 04:56:43;;;;;;;7.70;6.50;;;20.70;47.80;;;;;;10470538;28;20716;-73
2021/07/26 05:01:46;;;;;;;7.03;6.03;;;20.70;48.60;;;;;;10471066;28;20235;-74
2021/07/26 05:06:49;;;;;;;10.17;7.30;;;20.80;48.00;;;;;;10472980;28;20225;-74
2021/07/26 05:11:54;;;;;;;7.87;6.50;;;20.80;48.10;;;;;;10472149;28;20235;-74
2021/07/26 05:16:57;;;;;;;7.40;5.53;;;20.90;48.70;;;;;;10469951;28;20722;-73
2021/07/26 05:22:00;;;;;;;7.10;6.23;;;20.90;48.40;;;;;;10475763;28;20224;-74
2021/07/26 05:27:07;;;;;;;6.37;5.73;;;20.90;48.50;;;;;;10463642;28;20216;-74
2021/07/26 05:32:10;;;;;;;7.80;5.80;;;21.00;49.60;;;;;;10470891;28;20228;-74
2021/07/26 05:37:13;;;;;;;9.23;5.40;;;21.10;49.30;;;;;;10468562;28;20254;-73
2021/07/26 05:42:18;;;;;;;7.20;6.00;;;21.20;48.90;;;;;;10463897;28;20225;-73
2021/07/26 05:47:21;;;;;;;7.20;6.30;;;21.30;49.90;;;;;;10468064;28;20307;-73
2021/07/26 05:52:25;;;;;;;8.47;6.80;;;21.40;49.20;;;;;;10469569;28;20236;-75
2021/07/26 05:57:34;;;;;;;6.43;5.83;;;21.50;49.30;;;;;;10472842;28;20237;-72
2021/07/26 06:02:38;;;;;;;7.37;6.63;;;21.50;50.10;;;;;;10470035;28;20582;-73
2021/07/26 06:07:41;;;;;;;7.87;6.80;;;21.50;49.60;;;;;;10472689;28;20228;-72
2021/07/26 06:12:45;;;;;;;8.67;7.00;;;21.60;49.60;;;;;;10474284;28;21165;-72
2021/07/26 06:17:49;;;;;;;10.50;7.40;;;21.60;50.10;;;;;;10471134;28;20703;-72
2021/07/26 06:22:54;;;;;;;6.60;6.00;;;21.70;49.80;;;;;;10478601;28;20238;-72
2021/07/26 06:27:59;;;;;;;9.60;6.23;;;21.70;50.20;;;;;;10479667;28;20231;-72
2021/07/26 06:33:03;;;;;;;6.70;6.10;;;21.80;50.30;;;;;;10440005;28;20661;-72
2021/07/26 06:38:06;;;;;;;7.63;6.93;;;21.80;50.30;;;;;;10439019;28;20229;-72
2021/07/26 06:43:11;;;;;;;7.10;6.20;;;21.80;50.30;;;;;;10439844;28;20717;-72
2021/07/26 06:48:14;;;;;;;7.50;6.77;;;21.90;50.40;;;;;;10438553;28;20227;-71
2021/07/26 06:53:19;;;;;;;7.17;6.33;;;22.00;50.50;;;;;;10434112;28;20321;-71
2021/07/26 06:58:23;;;;;;;6.60;6.07;;;22.10;50.40;;;;;;10434733;28;20243;-71
2021/07/26 07:03:26;;;;;;;8.20;6.63;;;22.20;50.70;;;;;;10438911;28;20237;-71
2021/07/26 07:08:30;;;;;;;7.77;7.07;;;22.30;50.20;;;;;;10435536;28;20217;-71
2021/07/26 07:13:35;;;;;;;7.43;6.57;;;22.40;49.90;;;;;;10439271;28;20231;-71
2021/07/26 07:18:39;;;;;;;8.93;6.27;;;22.50;50.30;;;;;;10434175;28;20299;-71
2021/07/26 07:23:43;;;;;;;8.07;6.30;;;22.50;49.50;;;;;;10435919;28;20235;-73
2021/07/26 07:28:48;;;;;;;6.80;6.20;;;22.60;49.50;;;;;;10433139;28;20225;-73
2021/07/26 07:33:51;;;;;;;9.57;7.00;;;22.60;49.90;;;;;;10432724;28;20238;-73
2021/07/26 07:38:56;;;;;;;9.30;7.43;;;22.60;49.60;;;;;;10433662;28;20233;-75
2021/07/26 07:44:01;;;;;;;8.30;7.50;;;22.70;50.00;;;;;;10433556;28;20713;-75
2021/07/26 07:49:05;;;;;;;7.23;6.67;;;22.70;50.30;;;;;;10435150;28;20225;-75
2021/07/26 07:54:10;;;;;;;6.93;6.33;;;22.80;50.00;;;;;;10435077;28;20231;-75
2021/07/26 07:59:15;;;;;;;8.30;7.50;;;22.80;50.80;;;;;;10434577;28;20299;-75
2021/07/26 08:04:18;;;;;;;8.80;7.90;;;22.90;51.30;;;;;;10442306;28;20225;-74
2021/07/26 08:09:21;;;;;;;8.63;7.37;;;23.00;51.40;;;;;;10427271;28;26173;-75
2021/07/26 08:14:29;;;;;;;8.37;7.67;;;23.10;51.50;;;;;;10438930;28;20313;-75
2021/07/26 08:19:32;;;;;;;9.53;7.73;;;23.30;51.60;;;;;;10433743;28;20221;-74
2021/07/26 08:24:35;;;;;;;7.00;6.40;;;23.40;51.00;;;;;;10429302;28;20693;-75
2021/07/26 08:29:40;;;;;;;7.73;7.03;;;23.50;50.50;;;;;;10430151;28;20233;-74
2021/07/26 08:34:43;;;;;;;7.73;7.03;;;23.60;50.90;;;;;;10439063;28;20719;-74
2021/07/26 08:39:46;;;;;;;7.03;6.50;;;23.70;50.80;;;;;;10437058;28;20792;-75
2021/07/26 08:44:51;;;;;;;7.30;6.70;;;23.90;50.70;;;;;;10434143;28;20217;-75
2021/07/26 08:49:59;;;;;;;7.63;6.83;;;24.10;50.40;;;;;;10431908;28;20359;-74
2021/07/26 08:55:03;;;;;;;8.40;7.67;;;24.20;50.80;;;;;;10431776;28;20221;-74
2021/07/26 09:00:09;;;;;;;7.83;7.10;;;24.40;50.20;;;;;;10433121;28;20225;-75
2021/07/26 09:05:27;;;;;;;6.87;6.33;;;24.50;49.70;;;;;;10428472;28;20377;-75
2021/07/26 09:10:33;;;;;;;7.93;6.20;;;24.60;49.30;;;;;;10437275;28;20224;-75
2021/07/26 09:15:40;;;;;;;6.20;5.70;;;24.80;48.90;;;;;;10428490;28;20221;-75
2021/07/26 09:20:52;;;;;;;6.23;5.70;;;24.90;48.30;;;;;;10429465;28;20280;-76
2021/07/26 09:25:55;;;;;;;6.17;5.67;;;25.00;47.60;;;;;;10428994;28;20233;-75
2021/07/26 09:31:07;;;;;;;5.73;5.23;;;25.10;47.80;;;;;;10426658;28;20267;-75
2021/07/26 09:36:13;;;;;;;5.17;4.77;;;25.20;47.10;;;;;;10471857;28;20247;-76
2021/07/26 09:41:17;;;;;;;5.60;5.13;;;25.30;47.10;;;;;;10473439;28;20232;-74
2021/07/26 09:46:27;;;;;;;5.83;5.40;;;25.50;47.50;;;;;;10472940;28;20227;-74
2021/07/26 09:51:30;;;;;;;4.97;4.57;;;25.60;46.10;;;;;;10466456;28;20255;-74
2021/07/26 09:56:34;;;;;;;5.47;5.07;;;25.70;46.50;;;;;;10478066;28;20224;-74
2021/07/26 10:01:38;;;;;;;5.03;4.13;;;25.70;45.60;;;;;;10469074;28;20225;-73
2021/07/26 10:06:42;;;;;;;5.37;4.30;;;25.70;45.20;;;;;;10475656;28;20594;-76
2021/07/26 10:11:47;;;;;;;5.30;4.80;;;25.80;45.50;;;;;;10470814;28;20228;-75
2021/07/26 10:16:52;;;;;;;5.77;5.00;;;25.90;45.20;;;;;;10478060;28;20834;-75
2021/07/26 10:21:57;;;;;;;5.27;4.87;;;26.00;45.80;;;;;;10466395;28;20238;-74
2021/07/26 10:27:03;;;;;;;5.80;5.30;;;26.10;45.60;;;;;;10469914;28;20220;-74
2021/07/26 10:32:37;;;;;;;5.20;4.73;;;26.20;45.10;;;;;;10467128;28;20230;-75
2021/07/26 10:37:48;;;;;;;5.40;5.00;;;26.30;45.20;;;;;;10472451;28;20227;-74
2021/07/26 10:42:53;;;;;;;5.50;5.10;;;26.40;46.10;;;;;;10472082;28;20228;-73
2021/07/26 10:48:30;;;;;;;5.53;5.07;;;26.60;46.00;;;;;;10475822;28;20220;-76
2021/07/26 10:53:58;;;;;;;4.53;4.23;;;26.80;45.30;;;;;;10437028;28;20217;-74
2021/07/26 10:59:05;;;;;;;5.53;5.10;;;27.00;44.30;;;;;;10427965;28;20239;-74
2021/07/26 11:04:45;;;;;;;5.13;4.67;;;27.20;42.40;;;;;;10428862;28;20297;-75
2021/07/26 11:09:49;;;;;;;4.30;4.00;;;27.40;42.60;;;;;;10437495;28;20689;-75
2021/07/26 11:15:15;;;;;;;4.57;4.20;;;27.60;42.70;;;;;;10437402;28;20237;-75
2021/07/26 11:20:55;;;;;;;4.60;4.30;;;27.70;42.70;;;;;;10432507;28;20249;-75
2021/07/26 11:26:02;;;;;;;4.53;4.10;;;27.90;42.20;;;;;;10432152;28;20226;-76
2021/07/26 11:31:06;;;;;;;3.97;3.77;;;28.10;41.90;;;;;;10478824;28;20217;-75
2021/07/26 11:36:10;;;;;;;4.00;3.70;;;28.30;42.10;;;;;;10469326;28;20236;-75
2021/07/26 11:41:20;;;;;;;4.30;4.00;;;28.60;41.70;;;;;;10473564;28;20347;-76
2021/07/26 11:46:24;;;;;;;4.43;4.13;;;28.80;40.00;;;;;;10476371;28;20900;-75
2021/07/26 11:51:32;;;;;;;5.60;5.20;;;28.90;41.00;;;;;;10476695;28;20244;-76
2021/07/26 11:56:37;;;;;;;4.50;4.20;;;28.90;38.70;;;;;;10484682;28;20224;-75
2021/07/26 12:01:44;;;;;;;3.83;3.63;;;28.80;39.50;;;;;;10480870;28;20254;-75
2021/07/26 12:06:52;;;;;;;4.57;4.27;;;28.80;39.10;;;;;;10477667;28;20216;-75
2021/07/26 12:12:08;;;;;;;3.50;3.30;;;28.90;37.70;;;;;;10478450;28;20775;-76
2021/07/26 12:17:14;;;;;;;4.30;4.00;;;28.90;38.40;;;;;;10443995;28;20264;-75
2021/07/26 12:22:20;;;;;;;4.20;3.90;;;29.00;37.90;;;;;;10442539;28;20525;-74
2021/07/26 12:27:56;;;;;;;4.60;4.30;;;29.00;37.90;;;;;;10428314;28;20220;-74
2021/07/26 12:32:59;;;;;;;4.60;4.20;;;29.10;37.50;;;;;;10428418;28;20763;-75
2021/07/26 12:38:16;;;;;;;4.20;3.90;;;29.20;38.20;;;;;;10437438;28;20227;-75
2021/07/26 12:43:27;;;;;;;4.00;3.70;;;29.30;36.80;;;;;;10432684;28;20898;-75
2021/07/26 12:48:31;;;;;;;4.60;4.30;;;29.40;36.70;;;;;;10427073;28;20737;-74
2021/07/26 12:53:34;;;;;;;3.97;3.67;;;29.40;36.70;;;;;;10423377;28;20235;-75
2021/07/26 12:58:39;;;;;;;3.83;3.53;;;29.40;37.10;;;;;;10427984;28;20234;-74
2021/07/26 13:03:42;;;;;;;4.20;3.90;;;29.40;35.90;;;;;;10422933;28;21131;-75
2021/07/26 13:08:45;;;;;;;3.70;3.47;;;29.50;36.60;;;;;;10429841;28;20348;-76
2021/07/26 13:13:50;;;;;;;4.10;3.80;;;29.50;36.30;;;;;;10424689;28;20225;-74
2021/07/26 13:18:53;;;;;;;3.87;3.67;;;29.60;35.30;;;;;;10428565;28;20239;-75
2021/07/26 13:23:56;;;;;;;3.97;3.67;;;29.70;36.30;;;;;;10422767;28;20225;-75
2021/07/26 13:29:02;;;;;;;4.33;4.00;;;29.80;35.90;;;;;;10426311;28;20739;-74
2021/07/26 13:34:22;;;;;;;4.83;4.33;;;29.90;35.30;;;;;;10425381;28;20230;-74
2021/07/26 13:39:25;;;;;;;4.30;4.00;;;29.90;35.20;;;;;;10414311;28;20236;-74
2021/07/26 13:44:30;;;;;;;3.97;3.73;;;29.80;34.40;;;;;;10418267;28;20720;-74
2021/07/26 13:49:33;;;;;;;4.77;4.47;;;29.80;34.20;;;;;;10422855;28;20233;-74
2021/07/26 13:54:36;;;;;;;4.83;4.30;;;29.80;33.90;;;;;;10414128;28;20228;-74
2021/07/26 13:59:42;;;;;;;4.23;3.93;;;29.80;34.20;;;;;;10422441;28;20230;-74
2021/07/26 14:04:45;;;;;;;4.43;4.13;;;29.80;33.80;;;;;;10422019;28;20711;-74
2021/07/26 14:09:48;;;;;;;4.40;4.10;;;29.90;34.60;;;;;;10427244;28;20252;-74
2021/07/26 14:14:54;;;;;;;4.40;4.10;;;29.90;34.00;;;;;;10421874;28;20233;-73
2021/07/26 14:19:57;;;;;;;4.27;3.97;;;29.90;33.20;;;;;;10432070;28;20256;-74
2021/07/26 14:25:00;;;;;;;3.90;3.70;;;30.00;34.30;;;;;;10432047;28;20225;-74
2021/07/26 14:30:06;;;;;;;5.63;4.30;;;30.10;34.10;;;;;;10470408;28;20308;-74
2021/07/26 14:35:10;;;;;;;4.53;4.23;;;30.20;33.00;;;;;;10464469;28;20304;-74
2021/07/26 14:40:15;;;;;;;4.80;4.20;;;30.30;33.20;;;;;;10462633;28;20236;-74
2021/07/26 14:45:19;;;;;;;4.63;4.23;;;30.30;32.70;;;;;;10474356;28;20705;-76
2021/07/26 14:50:22;;;;;;;4.70;4.40;;;30.30;32.40;;;;;;10484201;28;20247;-74
2021/07/26 14:55:26;;;;;;;4.10;3.80;;;30.30;32.60;;;;;;10475610;28;20246;-75
2021/07/26 15:00:30;;;;;;;4.70;4.30;;;30.30;32.60;;;;;;10478541;28;20232;-74
2021/07/26 15:05:34;;;;;;;4.80;4.27;;;30.30;31.70;;;;;;10460094;28;20231;-74
2021/07/26 15:10:37;;;;;;;4.47;4.17;;;30.30;31.70;;;;;;10475597;28;20270;-74
2021/07/26 15:15:41;;;;;;;5.40;4.90;;;30.20;31.70;;;;;;10463398;28;20225;-74
2021/07/26 15:20:45;;;;;;;5.07;4.67;;;30.20;31.70;;;;;;10475794;28;20225;-75
2021/07/26 15:25:50;;;;;;;5.20;4.80;;;30.20;31.70;;;;;;10477125;28;20231;-74
2021/07/26 15:30:54;;;;;;;4.70;4.40;;;30.20;31.70;;;;;;10470911;28;20231;-73
2021/07/26 15:35:57;;;;;;;4.90;4.50;;;30.20;31.70;;;;;;10467389;28;20236;-72
2021/07/26 15:41:01;;;;;;;5.23;4.83;;;30.20;31.90;;;;;;10467806;28;20227;-73
2021/07/26 15:46:05;;;;;;;4.50;4.20;;;30.20;31.70;;;;;;10473955;28;20228;-73
2021/07/26 15:51:11;;;;;;;5.37;4.97;;;30.20;31.70;;;;;;10463732;28;20221;-73
2021/07/26 15:56:14;;;;;;;5.40;4.90;;;30.20;31.70;;;;;;10467678;28;20591;-72
2021/07/26 16:01:18;;;;;;;5.10;4.50;;;30.20;31.70;;;;;;10473661;28;20229;-73
2021/07/26 16:06:22;;;;;;;4.80;4.43;;;30.20;31.60;;;;;;10462577;28;20651;-73
2021/07/26 16:11:25;;;;;;;4.50;4.20;;;30.20;31.70;;;;;;10464687;28;20224;-73
2021/07/26 16:16:29;;;;;;;4.93;4.53;;;30.20;31.70;;;;;;10468942;28;20228;-73
2021/07/26 16:21:33;;;;;;;4.43;4.13;;;30.10;31.00;;;;;;10466968;28;20236;-72
2021/07/26 16:26:37;;;;;;;4.47;4.17;;;30.00;31.50;;;;;;10464325;28;20216;-73
2021/07/26 16:31:41;;;;;;;4.30;4.00;;;29.90;31.50;;;;;;10470231;28;20231;-73
2021/07/26 16:36:44;;;;;;;4.47;4.10;;;29.80;31.40;;;;;;10464257;28;20232;-73
2021/07/26 16:41:48;;;;;;;4.10;3.80;;;29.80;31.40;;;;;;10465135;28;20228;-73
2021/07/26 16:46:53;;;;;;;4.73;4.40;;;29.70;31.30;;;;;;10474216;28;20711;-73
2021/07/26 16:51:57;;;;;;;4.80;4.40;;;29.50;31.20;;;;;;10468131;28;20229;-73
2021/07/26 16:57:00;;;;;;;4.70;4.40;;;29.40;31.10;;;;;;10460120;28;20227;-73
2021/07/26 17:02:04;;;;;;;4.90;4.50;;;29.20;31.00;;;;;;10436985;28;20225;-72
2021/07/26 17:07:08;;;;;;;4.70;4.30;;;29.00;30.90;;;;;;10425809;28;20257;-72
2021/07/26 17:12:13;;;;;;;4.97;4.57;;;28.90;30.80;;;;;;10429658;28;20240;-72
2021/07/26 17:17:18;;;;;;;5.00;4.50;;;28.80;30.70;;;;;;10451618;28;20228;-73
2021/07/26 17:22:21;;;;;;;4.97;4.57;;;28.70;32.00;;;;;;10449202;28;20228;-72
2021/07/26 17:27:25;;;;;;;5.00;4.50;;;28.50;32.30;;;;;;10429782;28;20225;-73
2021/07/26 17:32:29;;;;;;;4.93;4.53;;;28.40;32.20;;;;;;10437121;28;20232;-73
2021/07/26 17:37:33;;;;;;;4.50;4.20;;;28.30;32.10;;;;;;10432948;28;20232;-73
2021/07/26 17:42:36;;;;;;;4.70;4.30;;;28.00;31.80;;;;;;10432252;28;20228;-73
2021/07/26 17:47:41;;;;;;;4.13;3.83;;;27.70;31.70;;;;;;10427766;28;20653;-74
2021/07/26 17:52:44;;;;;;;4.30;3.97;;;27.40;32.30;;;;;;10414021;28;20860;-74
2021/07/26 17:57:47;;;;;;;4.40;4.00;;;27.10;32.30;;;;;;10418877;28;20230;-75
2021/07/26 18:02:52;;;;;;;3.80;3.50;;;27.00;32.40;;;;;;10426448;28;20236;-75
2021/07/26 18:07:56;;;;;;;3.20;2.57;;;26.70;32.60;;;;;;10431271;28;20221;-75
2021/07/26 18:13:00;;;;;;;1.83;1.73;;;26.20;32.30;;;;;;10431037;28;20231;-76
2021/07/26 18:18:12;;;;;;;1.47;1.33;;;25.50;31.70;;;;;;10456872;28;20314;-76
2021/07/26 18:23:17;;;;;;;2.30;1.57;;;24.60;32.60;;;;;;10472217;28;20228;-76
2021/07/26 18:28:21;;;;;;;2.60;1.40;;;24.00;33.10;;;;;;10435340;28;20227;-76
2021/07/26 18:33:28;;;;;;;2.30;1.60;;;23.60;34.10;;;;;;10432919;28;20301;-77
2021/07/26 18:38:31;;;;;;;2.03;1.40;;;23.40;35.30;;;;;;10422485;28;20233;-75
2021/07/26 18:43:35;;;;;;;2.53;1.60;;;23.30;35.30;;;;;;10431158;28;20235;-74
2021/07/26 18:48:46;;;;;;;3.23;2.80;;;23.10;35.50;;;;;;10434659;28;20231;-74
2021/07/26 18:53:49;;;;;;;3.80;3.40;;;22.90;36.10;;;;;;10435136;28;20236;-74
2021/07/26 18:58:52;;;;;;;4.17;3.20;;;22.70;36.40;;;;;;10433467;28;20847;-74
2021/07/26 19:03:57;;;;;;;2.50;2.30;;;22.60;36.70;;;;;;10427364;28;20232;-75
2021/07/26 19:09:00;;;;;;;2.10;1.90;;;22.50;38.00;;;;;;10438491;28;20229;-74
2021/07/26 19:14:04;;;;;;;2.57;1.80;;;22.50;37.30;;;;;;10436300;28;21039;-74
2021/07/26 19:19:12;;;;;;;3.80;1.80;;;22.50;38.30;;;;;;10432509;28;20232;-73
2021/07/26 19:24:15;;;;;;;4.17;1.90;;;22.50;38.70;;;;;;10433154;28;20229;-74
2021/07/26 19:29:19;;;;;;;2.77;1.90;;;22.50;38.10;;;;;;10432304;28;20773;-74
2021/07/26 19:34:24;;;;;;;3.77;2.20;;;22.50;38.20;;;;;;10447919;22;20864;-73
2021/07/26 19:39:27;;;;;;;2.30;1.70;;;22.40;38.60;;;;;;10436378;28;20236;-73
2021/07/26 19:44:30;;;;;;;2.70;1.93;;;22.40;38.60;;;;;;10450068;28;20345;-72
2021/07/26 19:49:35;;;;;;;1.83;1.60;;;22.30;38.50;;;;;;10464549;28;20225;-73
2021/07/26 19:54:38;;;;;;;3.13;1.70;;;22.30;39.40;;;;;;10463038;28;20228;-75
2021/07/26 19:59:41;;;;;;;3.70;1.73;;;22.30;38.70;;;;;;10458788;28;21054;-75
2021/07/26 20:04:46;;;;;;;2.57;2.37;;;22.30;39.10;;;;;;10459481;28;20236;-75
2021/07/26 20:09:49;;;;;;;3.40;2.40;;;22.40;39.60;;;;;;10457405;28;20236;-75
2021/07/26 20:14:53;;;;;;;3.93;2.50;;;22.40;39.00;;;;;;10461183;28;20236;-75
2021/07/26 20:19:57;;;;;;;2.70;2.50;;;22.30;39.30;;;;;;10462263;28;20242;-75
2021/07/26 20:25:00;;;;;;;2.50;2.30;;;22.30;40.30;;;;;;10447942;28;20221;-75
2021/07/26 20:30:04;;;;;;;4.10;2.43;;;22.30;40.00;;;;;;10449927;28;20225;-75
2021/07/26 20:35:10;;;;;;;4.77;2.80;;;22.40;40.20;;;;;;10454184;28;20232;-74
2021/07/26 20:40:14;;;;;;;4.33;2.90;;;22.40;40.80;;;;;;10449786;28;20228;-75
2021/07/26 20:45:19;;;;;;;3.50;3.20;;;22.40;40.10;;;;;;10457218;28;20228;-75
2021/07/26 20:50:24;;;;;;;5.53;2.97;;;22.40;40.20;;;;;;10454539;28;20244;-75
2021/07/26 20:55:27;;;;;;;3.77;3.40;;;22.30;40.80;;;;;;10450861;28;20224;-75
2021/07/26 21:00:32;;;;;;;5.63;3.63;;;22.20;40.50;;;;;;10455610;28;20735;-75
2021/07/26 21:05:42;;;;;;;3.80;3.50;;;22.10;41.00;;;;;;10451287;28;21760;-75
2021/07/26 21:10:45;;;;;;;7.13;3.80;;;22.00;42.00;;;;;;10446423;28;20701;-75
2021/07/26 21:15:55;;;;;;;4.97;3.60;;;21.90;41.70;;;;;;10455187;28;20232;-75
2021/07/26 21:20:59;;;;;;;6.93;3.90;;;21.80;42.00;;;;;;10457298;28;20232;-75
2021/07/26 21:26:02;;;;;;;4.07;3.67;;;21.80;42.90;;;;;;10452476;28;20566;-74
2021/07/26 21:31:06;;;;;;;6.10;3.77;;;21.80;42.30;;;;;;10452752;28;20259;-75
2021/07/26 21:36:10;;;;;;;3.97;3.57;;;21.70;42.60;;;;;;10450361;28;20229;-78
2021/07/26 21:41:14;;;;;;;4.10;3.70;;;21.70;43.50;;;;;;10465926;28;20229;-79
2021/07/26 21:46:19;;;;;;;5.07;3.80;;;21.70;42.90;;;;;;10457150;28;20620;-78
2021/07/26 21:51:24;;;;;;;3.90;3.50;;;21.70;42.90;;;;;;10466041;28;20233;-78
2021/07/26 21:56:28;;;;;;;4.33;3.73;;;21.70;43.50;;;;;;10464811;28;20228;-78
2021/07/26 22:01:32;;;;;;;3.77;3.43;;;21.70;42.90;;;;;;10472218;28;20235;-78
2021/07/26 22:06:36;;;;;;;3.80;3.40;;;21.80;42.80;;;;;;10465436;28;20298;-79
2021/07/26 22:11:39;;;;;;;4.43;3.50;;;21.90;43.20;;;;;;10467738;28;20228;-79
2021/07/26 22:16:43;;;;;;;4.00;3.00;;;22.00;42.60;;;;;;10476686;28;20239;-78
2021/07/26 22:21:48;;;;;;;5.37;3.33;;;22.00;42.50;;;;;;10476927;28;20775;-79
2021/07/26 22:26:52;;;;;;;3.70;3.40;;;22.10;42.90;;;;;;10462906;28;20216;-72
2021/07/26 22:31:56;;;;;;;3.60;3.30;;;22.10;42.00;;;;;;10456946;28;20232;-72
2021/07/26 22:37:00;;;;;;;3.60;3.20;;;22.10;41.70;;;;;;10455994;28;20228;-72
2021/07/26 22:42:04;;;;;;;3.53;3.03;;;22.00;42.10;;;;;;10451697;28;20228;-73
2021/07/26 22:47:07;;;;;;;3.43;3.13;;;22.00;41.70;;;;;;10451881;28;20655;-72
2021/07/26 22:52:12;;;;;;;3.87;3.57;;;22.00;41.90;;;;;;10454582;28;20237;-72
2021/07/26 22:57:15;;;;;;;5.20;3.00;;;21.90;42.30;;;;;;10457787;28;20224;-72
2021/07/26 23:02:18;;;;;;;4.00;3.30;;;21.90;41.80;;;;;;10450034;28;20220;-72
2021/07/26 23:07:25;;;;;;;4.60;3.40;;;21.80;42.00;;;;;;10468479;28;20323;-72
2021/07/26 23:12:31;;;;;;;4.63;3.70;;;21.80;42.30;;;;;;10463324;28;20721;-72
2021/07/26 23:17:34;;;;;;;7.20;3.37;;;21.70;41.90;;;;;;10465507;28;20611;-72
2021/07/26 23:22:39;;;;;;;4.33;3.03;;;21.60;41.80;;;;;;10465615;28;20714;-72
2021/07/26 23:27:42;;;;;;;3.50;3.20;;;21.50;42.20;;;;;;10464425;28;20228;-72
2021/07/26 23:32:45;;;;;;;3.87;2.60;;;21.30;41.80;;;;;;10461855;28;20228;-72
2021/07/26 23:37:50;;;;;;;5.80;3.30;;;21.20;42.00;;;;;;10461331;28;20224;-72
2021/07/26 23:42:53;;;;;;;3.50;2.60;;;21.20;42.70;;;;;;10463814;28;20591;-72
2021/07/26 23:47:56;;;;;;;3.03;2.70;;;21.20;42.30;;;;;;10457673;28;20231;-72
2021/07/26 23:53:05;;;;;;;5.93;3.13;;;21.10;42.30;;;;;;10465318;28;20224;-72
2021/07/26 23:58:09;;;;;;;4.40;3.10;;;21.10;42.70;;;;;;10461351;28;20225;-72
